createdAt,value
2023-03-06T00:02:57.003Z,57.78
2023-03-06T00:06:04.189Z,57.30
2023-03-06T00:09:10.754Z,57.30
2023-03-06T00:12:17.526Z,57.62
2023-03-06T00:15:24.255Z,56.83
2023-03-06T00:18:33.672Z,56.66
2023-03-06T00:21:39.664Z,57.05
2023-03-06T00:24:47.317Z,57.32
2023-03-06T00:27:53.937Z,56.93
2023-03-06T00:31:01.423Z,57.06
2023-03-06T00:34:11.750Z,57.12
2023-03-06T00:37:19.325Z,57.78
2023-03-06T00:40:25.564Z,57.78
2023-03-06T00:43:33.025Z,57.75
2023-03-06T00:46:39.379Z,57.53
2023-03-06T00:49:48.735Z,56.55
2023-03-06T00:52:54.609Z,57.21
2023-03-06T00:56:01.263Z,58.28
2023-03-06T00:59:08.674Z,58.57
2023-03-06T01:02:15.612Z,58.98
2023-03-06T01:05:24.979Z,59.17
2023-03-06T01:08:31.704Z,58.76
2023-03-06T01:11:37.474Z,59.19
2023-03-06T01:14:44.182Z,58.86
2023-03-06T01:17:50.199Z,58.66
2023-03-06T01:20:59.369Z,59.01
2023-03-06T01:24:05.182Z,58.68
2023-03-06T01:27:12.192Z,58.26
2023-03-06T01:30:18.578Z,58.42
2023-03-06T01:33:25.467Z,58.43
2023-03-06T01:36:33.945Z,58.78
2023-03-06T01:39:42.488Z,58.30
2023-03-06T01:42:48.343Z,58.13
2023-03-06T01:46:42.395Z,57.99
2023-03-06T01:49:48.261Z,57.83
2023-03-06T01:53:03.985Z,58.30
2023-03-06T01:56:11.171Z,58.45
2023-03-06T01:59:19.479Z,58.04
2023-03-06T02:02:25.966Z,58.17
2023-03-06T02:05:32.848Z,58.48
2023-03-06T02:08:43.107Z,58.55
2023-03-06T02:11:49.833Z,58.14
2023-03-06T02:14:56.783Z,57.96
2023-03-06T02:18:04.176Z,58.49
2023-03-06T02:21:13.171Z,59.01
2023-03-06T02:24:40.522Z,58.51
2023-03-06T02:27:49.241Z,58.16
2023-03-06T02:30:59.940Z,58.35
2023-03-06T02:34:31.202Z,58.12
2023-03-06T02:37:37.879Z,57.77
2023-03-06T02:40:49.978Z,57.92
2023-03-06T02:43:59.361Z,58.00
2023-03-06T02:47:05.230Z,57.59
2023-03-06T02:50:13.647Z,57.85
2023-03-06T02:53:22.541Z,57.35
2023-03-06T02:56:29.133Z,57.72
2023-03-06T02:59:38.775Z,57.43
2023-03-06T03:02:47.057Z,57.25
2023-03-06T03:05:52.949Z,57.16
2023-03-06T03:09:04.070Z,57.08
2023-03-06T03:12:11.365Z,57.27
2023-03-06T03:15:22.124Z,57.41
2023-03-06T03:18:27.893Z,56.84
2023-03-06T03:21:34.755Z,57.36
2023-03-06T03:24:40.641Z,56.37
2023-03-06T03:27:47.445Z,56.64
2023-03-06T03:30:55.978Z,56.85
2023-03-06T03:34:04.844Z,56.61
2023-03-06T03:37:14.169Z,56.73
2023-03-06T03:40:22.696Z,56.76
2023-03-06T03:43:29.988Z,56.48
2023-03-06T03:46:41.371Z,56.12
2023-03-06T03:49:52.152Z,56.35
2023-03-06T03:53:00.225Z,56.55
2023-03-06T03:56:06.837Z,55.89
2023-03-06T03:59:18.819Z,55.87
2023-03-06T04:02:38.148Z,55.39
2023-03-06T04:05:54.107Z,56.40
2023-03-06T04:09:00.434Z,55.44
2023-03-06T04:12:08.960Z,55.50
2023-03-06T04:15:16.302Z,55.11
2023-03-06T04:18:27.487Z,54.71
2023-03-06T04:21:37.900Z,55.06
2023-03-06T04:24:45.785Z,55.48
2023-03-06T04:27:52.361Z,55.01
2023-03-06T04:30:59.135Z,55.33
2023-03-06T04:34:07.873Z,55.09
2023-03-06T04:37:24.283Z,55.71
2023-03-06T04:40:34.805Z,55.92
2023-03-06T04:43:41.807Z,56.04
2023-03-06T04:46:47.610Z,56.63
2023-03-06T04:49:56.964Z,56.16
2023-03-06T04:53:04.929Z,56.32
2023-03-06T04:56:12.070Z,56.96
2023-03-06T04:59:17.841Z,56.29
2023-03-06T05:02:24.862Z,56.71
2023-03-06T05:05:33.983Z,57.66
2023-03-06T05:08:40.544Z,57.96
2023-03-06T05:11:46.312Z,58.03
2023-03-06T05:14:52.925Z,58.79
2023-03-06T05:17:58.700Z,58.89
2023-03-06T05:21:09.303Z,59.53
2023-03-06T05:24:15.206Z,59.86
2023-03-06T05:27:21.893Z,60.03
2023-03-06T05:30:28.146Z,60.07
2023-03-06T05:33:35.516Z,60.06
2023-03-06T05:36:44.635Z,59.65
2023-03-06T05:39:51.306Z,59.44
2023-03-06T05:42:57.071Z,59.37
2023-03-06T05:46:05.725Z,59.56
2023-03-06T05:49:11.848Z,59.62
2023-03-06T05:52:21.494Z,60.29
2023-03-06T05:55:29.801Z,59.80
2023-03-06T05:58:38.022Z,60.12
2023-03-06T06:01:43.964Z,60.17
2023-03-06T06:04:51.268Z,59.63
2023-03-06T06:07:59.650Z,59.90
2023-03-06T06:11:12.322Z,59.48
2023-03-06T06:14:31.220Z,59.27
2023-03-06T06:23:26.874Z,58.48
2023-03-06T06:27:10.552Z,58.82
2023-03-06T06:30:48.847Z,58.86
2023-03-06T06:34:25.987Z,58.88
2023-03-06T06:38:05.998Z,58.20
2023-03-06T06:42:11.026Z,57.98
2023-03-06T06:45:34.549Z,58.39
2023-03-06T06:48:41.127Z,58.28
2023-03-06T06:51:47.029Z,58.74
2023-03-06T06:54:53.853Z,59.40
2023-03-06T06:58:02.225Z,58.96
2023-03-06T07:01:10.329Z,59.02
2023-03-06T07:04:16.920Z,58.66
2023-03-06T07:07:25.416Z,58.76
2023-03-06T07:10:32.052Z,58.97
2023-03-06T07:13:41.623Z,58.86
2023-03-06T07:16:47.364Z,59.03
2023-03-06T07:19:53.996Z,59.13
2023-03-06T07:22:59.830Z,59.50
2023-03-06T07:26:07.060Z,59.75
2023-03-06T07:29:15.494Z,59.52
2023-03-06T07:32:22.089Z,59.23
2023-03-06T07:35:29.894Z,59.32
2023-03-06T07:38:36.570Z,59.53
2023-03-06T07:41:42.420Z,58.09
2023-03-06T07:44:51.650Z,58.17
2023-03-06T07:47:57.826Z,57.30
2023-03-06T07:51:10.282Z,56.75
2023-03-06T07:54:16.193Z,56.52
2023-03-06T07:57:22.929Z,55.92
2023-03-06T08:00:31.495Z,55.93
2023-03-06T08:03:41.364Z,55.27
2023-03-06T08:06:47.134Z,54.64
2023-03-06T08:09:53.946Z,54.67
2023-03-06T08:13:00.021Z,54.07
2023-03-06T08:16:10.674Z,54.28
2023-03-06T08:19:16.518Z,53.18
2023-03-06T08:22:23.884Z,52.86
2023-03-06T08:25:29.742Z,52.69
2023-03-06T08:28:37.022Z,51.92
2023-03-06T08:31:48.663Z,50.53
2023-03-06T08:34:56.131Z,49.05
2023-03-06T08:38:02.045Z,47.97
2023-03-06T08:41:08.841Z,47.01
2023-03-06T08:44:15.667Z,45.88
2023-03-06T08:47:24.915Z,44.81
2023-03-06T08:50:30.862Z,44.20
2023-03-06T08:53:43.084Z,43.45
2023-03-06T08:56:49.527Z,42.66
2023-03-06T08:59:56.079Z,42.43
2023-03-06T09:03:04.584Z,41.45
2023-03-06T09:06:11.262Z,41.05
2023-03-06T09:09:18.291Z,39.72
2023-03-06T09:12:24.031Z,38.47
2023-03-06T09:15:30.690Z,39.01
2023-03-06T09:18:39.659Z,37.39
2023-03-06T09:21:46.280Z,37.76
2023-03-06T09:24:52.659Z,37.43
2023-03-06T09:28:10.890Z,37.64
2023-03-06T09:31:21.786Z,38.51
2023-03-06T09:34:31.007Z,38.30
2023-03-06T09:37:37.247Z,37.55
2023-03-06T09:44:21.492Z,36.51
2023-03-06T09:47:50.595Z,35.70
2023-03-06T09:51:13.128Z,36.50
2023-03-06T09:54:24.064Z,36.74
2023-03-06T09:57:36.252Z,36.88
2023-03-06T10:00:54.442Z,36.64
2023-03-06T10:04:27.094Z,36.02
2023-03-06T10:07:49.895Z,36.36
2023-03-06T10:11:05.707Z,36.45
2023-03-06T10:14:26.763Z,35.48
2023-03-06T10:17:41.648Z,35.57
2023-03-06T10:21:16.978Z,34.28
2023-03-06T10:24:56.232Z,34.09
2023-03-06T10:28:18.562Z,32.40
2023-03-06T10:31:29.419Z,31.19
2023-03-06T10:34:44.379Z,31.84
2023-03-06T10:37:51.902Z,31.37
2023-03-06T10:41:19.609Z,31.05
2023-03-06T10:44:29.110Z,30.88
2023-03-06T10:47:37.765Z,31.03
2023-03-06T10:50:43.771Z,27.96
2023-03-06T10:53:58.996Z,27.86
2023-03-06T10:57:32.891Z,28.10
2023-03-06T11:00:39.679Z,27.15
2023-03-06T11:03:45.706Z,28.75
2023-03-06T11:07:08.480Z,27.82
2023-03-06T11:10:23.832Z,28.15
2023-03-06T11:13:36.178Z,27.98
2023-03-06T11:16:42.746Z,28.80
2023-03-06T11:19:49.417Z,28.87
2023-03-06T11:23:03.209Z,29.67
2023-03-06T11:26:32.596Z,30.26
2023-03-06T11:29:46.294Z,31.19
2023-03-06T11:33:02.026Z,32.46
2023-03-06T11:36:21.553Z,31.93
2023-03-06T11:39:39.836Z,31.93
2023-03-06T11:42:59.102Z,31.54
2023-03-06T11:46:22.977Z,32.87
2023-03-06T11:49:41.479Z,33.23
2023-03-06T11:52:56.743Z,33.35
2023-03-06T11:56:23.025Z,32.77
2023-03-06T12:00:24.301Z,33.46
2023-03-06T12:04:16.753Z,32.28
2023-03-06T12:07:35.085Z,32.34
2023-03-06T12:10:52.441Z,31.70
2023-03-06T12:14:25.887Z,32.21
2023-03-06T12:17:57.857Z,30.60
2023-03-06T12:21:23.375Z,30.94
2023-03-06T12:25:21.294Z,31.18
2023-03-06T12:29:05.608Z,31.93
2023-03-06T12:32:30.651Z,31.52
2023-03-06T12:36:17.114Z,31.17
2023-03-06T12:39:45.047Z,28.72
2023-03-06T12:43:40.587Z,29.25
2023-03-06T12:46:54.888Z,30.65
2023-03-06T12:50:10.471Z,32.08
2023-03-06T12:53:30.500Z,31.81
2023-03-06T12:56:38.758Z,32.40
2023-03-06T12:59:48.837Z,32.49
2023-03-06T13:03:21.589Z,33.13
2023-03-06T13:07:05.688Z,33.85
2023-03-06T13:10:25.668Z,34.85
2023-03-06T13:13:37.227Z,35.37
2023-03-06T13:16:43.898Z,35.48
2023-03-06T13:19:50.902Z,34.77
2023-03-06T13:22:57.836Z,35.63
2023-03-06T13:26:12.783Z,35.93
2023-03-06T13:29:55.762Z,36.31
2023-03-06T13:33:01.639Z,36.83
2023-03-06T13:36:27.096Z,36.76
2023-03-06T13:40:29.625Z,36.59
2023-03-06T13:43:45.665Z,36.54
2023-03-06T13:47:02.740Z,36.22
2023-03-06T13:50:38.382Z,37.18
2023-03-06T13:54:30.742Z,37.40
2023-03-06T13:58:04.076Z,36.37
2023-03-06T14:01:43.070Z,37.30
2023-03-06T14:05:00.743Z,37.35
2023-03-06T14:08:17.564Z,36.76
2023-03-06T14:11:25.026Z,37.01
2023-03-06T14:14:45.442Z,35.79
2023-03-06T14:18:03.433Z,35.99
2023-03-06T14:21:15.990Z,37.21
2023-03-06T14:24:34.562Z,38.62
2023-03-06T14:27:56.325Z,40.38
2023-03-06T14:31:08.849Z,42.27
2023-03-06T14:34:26.758Z,42.21
2023-03-06T14:37:35.094Z,42.60
2023-03-06T14:40:48.624Z,45.40
2023-03-06T14:44:10.022Z,47.29
2023-03-06T14:47:28.722Z,46.95
2023-03-06T14:50:41.021Z,46.74
2023-03-06T14:53:49.847Z,46.13
2023-03-06T14:57:06.144Z,46.01
2023-03-06T15:00:24.199Z,46.30
2023-03-06T15:03:45.416Z,46.47
2023-03-06T15:06:56.925Z,46.51
2023-03-06T15:10:10.535Z,48.09
2023-03-06T15:13:26.268Z,50.05
2023-03-06T15:16:34.973Z,51.90
2023-03-06T15:19:43.380Z,52.49
2023-03-06T15:22:54.165Z,52.82
2023-03-06T15:26:03.898Z,52.94
2023-03-06T15:29:26.665Z,53.40
2023-03-06T15:32:42.619Z,53.75
2023-03-06T15:35:58.924Z,53.50
2023-03-06T15:39:41.354Z,53.54
2023-03-06T15:42:50.120Z,53.22
2023-03-06T15:46:03.580Z,52.88
2023-03-06T15:49:20.768Z,53.35
2023-03-06T15:52:27.536Z,52.71
2023-03-06T15:55:36.885Z,52.82
2023-03-06T15:58:44.777Z,52.86
2023-03-06T16:01:53.244Z,53.63
2023-03-06T16:05:02.558Z,54.09
2023-03-06T16:08:11.030Z,54.40
2023-03-06T16:11:35.340Z,54.58
2023-03-06T16:14:50.757Z,54.12
2023-03-06T16:17:56.747Z,54.17
2023-03-06T16:21:03.597Z,54.58
2023-03-06T16:24:09.865Z,54.98
2023-03-06T16:27:25.719Z,55.69
2023-03-06T16:30:35.704Z,55.54
2023-03-06T16:33:42.596Z,56.07
2023-03-06T16:36:50.299Z,55.98
2023-03-06T16:39:56.840Z,55.68
2023-03-06T16:43:05.278Z,55.65
2023-03-06T16:46:20.612Z,55.53
2023-03-06T16:49:27.953Z,55.29
2023-03-06T16:52:34.871Z,56.02
2023-03-06T16:55:40.808Z,56.56
2023-03-06T16:58:52.023Z,57.50
2023-03-06T17:01:57.855Z,57.99
2023-03-06T17:05:04.644Z,58.64
2023-03-06T17:08:10.670Z,59.23
2023-03-06T17:11:18.118Z,59.80
2023-03-06T17:14:26.591Z,60.71
2023-03-06T17:17:33.237Z,60.34
2023-03-06T17:20:39.085Z,60.61
2023-03-06T17:23:47.042Z,61.35
2023-03-06T17:26:53.048Z,61.08
2023-03-06T17:30:04.480Z,61.52
2023-03-06T17:33:10.312Z,61.85
2023-03-06T17:36:19.548Z,61.47
2023-03-06T17:39:26.027Z,60.61
2023-03-06T17:42:32.689Z,60.63
2023-03-06T17:45:41.999Z,64.93
2023-03-06T17:48:49.655Z,64.29
2023-03-06T17:51:56.640Z,63.13
2023-03-06T17:55:03.203Z,63.02
2023-03-06T18:01:21.641Z,63.10
2023-03-06T18:04:28.661Z,62.66
2023-03-06T18:07:34.476Z,62.41
2023-03-06T18:10:43.514Z,62.58
2023-03-06T18:13:49.323Z,62.41
2023-03-06T18:16:58.508Z,62.88
2023-03-06T18:20:04.627Z,62.32
2023-03-06T18:23:11.903Z,61.57
2023-03-06T18:26:21.007Z,61.97
2023-03-06T18:29:27.711Z,62.01
2023-03-06T18:32:36.212Z,61.55
2023-03-06T18:35:44.214Z,61.11
2023-03-06T18:38:50.190Z,61.34
2023-03-06T18:41:56.896Z,61.28
2023-03-06T18:45:03.236Z,60.84
2023-03-06T18:48:12.575Z,61.37
2023-03-06T18:51:20.376Z,60.34
2023-03-06T18:54:28.748Z,60.46
2023-03-06T18:57:34.595Z,60.58
2023-03-06T19:00:41.218Z,60.07
2023-03-06T19:03:53.133Z,60.58
2023-03-06T19:06:59.845Z,60.05
2023-03-06T19:10:06.149Z,61.03
2023-03-06T19:13:14.225Z,61.09
2023-03-06T19:16:23.266Z,60.19
2023-03-06T19:19:32.721Z,60.69
2023-03-06T19:22:38.601Z,60.07
2023-03-06T19:25:45.437Z,59.57
2023-03-06T19:28:56.570Z,60.57
2023-03-06T19:32:04.428Z,59.58
2023-03-06T19:35:13.850Z,59.26
2023-03-06T19:38:21.026Z,58.10
2023-03-06T19:41:28.157Z,57.74
2023-03-06T19:44:35.692Z,57.22
2023-03-06T19:47:41.682Z,57.41
2023-03-06T19:50:52.464Z,57.10
2023-03-06T19:53:59.817Z,57.01
2023-03-06T19:57:06.870Z,56.32
2023-03-06T20:00:16.228Z,56.71
2023-03-06T20:03:22.863Z,57.11
2023-03-06T20:06:36.809Z,56.77
2023-03-06T20:09:44.025Z,56.61
2023-03-06T20:12:55.144Z,56.67
2023-03-06T20:16:06.292Z,56.67
2023-03-06T20:19:13.924Z,57.22
2023-03-06T20:22:23.598Z,57.44
2023-03-06T20:25:29.989Z,57.06
2023-03-06T20:28:38.077Z,57.27
2023-03-06T20:31:45.627Z,57.70
2023-03-06T20:34:55.369Z,57.58
2023-03-06T20:38:04.151Z,57.82
2023-03-06T20:41:18.573Z,58.35
2023-03-06T20:44:24.405Z,58.38
2023-03-06T20:47:32.883Z,58.56
2023-03-06T20:50:39.022Z,58.76
2023-03-06T20:53:50.838Z,58.53
2023-03-06T20:56:58.235Z,58.15
2023-03-06T21:00:05.412Z,58.34
2023-03-06T21:03:11.355Z,58.04
2023-03-06T21:06:18.907Z,58.17
2023-03-06T21:09:27.268Z,57.98
2023-03-06T21:12:36.429Z,58.17
2023-03-06T21:15:42.702Z,58.21
2023-03-06T21:18:50.277Z,58.27
2023-03-06T21:21:56.328Z,58.37
2023-03-06T21:25:05.558Z,57.96
2023-03-06T21:28:11.307Z,57.96
2023-03-06T21:31:22.197Z,58.19
2023-03-06T21:34:28.347Z,57.41
2023-03-06T21:37:35.283Z,57.43
2023-03-06T21:40:45.525Z,57.24
2023-03-06T21:43:52.106Z,57.36
2023-03-06T21:46:57.796Z,57.43
2023-03-06T21:50:04.352Z,57.27
2023-03-06T21:53:12.463Z,57.22
2023-03-06T21:56:25.486Z,57.41
2023-03-06T21:59:31.425Z,57.45
2023-03-06T22:02:38.500Z,57.55
2023-03-06T22:05:44.786Z,57.64
2023-03-06T22:08:51.855Z,57.51
2023-03-06T22:12:00.393Z,57.48
2023-03-06T22:15:09.560Z,57.95
2023-03-06T22:18:16.054Z,57.89
2023-03-06T22:21:26.057Z,58.13
2023-03-06T22:24:31.881Z,58.20
2023-03-06T22:27:41.152Z,58.11
2023-03-06T22:30:46.891Z,58.35
2023-03-06T22:33:55.343Z,58.73
2023-03-06T22:37:01.328Z,58.60
2023-03-06T22:40:09.809Z,58.52
2023-03-06T22:43:20.164Z,58.82
2023-03-06T22:46:27.974Z,58.70
2023-03-06T22:49:33.818Z,58.44
2023-03-06T22:52:40.460Z,58.46
2023-03-06T22:55:46.272Z,58.44
2023-03-06T22:58:55.585Z,58.16
2023-03-06T23:02:01.441Z,57.80
2023-03-06T23:05:09.833Z,57.26
2023-03-06T23:08:17.307Z,57.13
2023-03-06T23:11:26.001Z,57.21
2023-03-06T23:14:53.182Z,57.04
2023-03-06T23:18:18.213Z,56.58
2023-03-06T23:21:43.028Z,56.48
2023-03-06T23:25:09.745Z,56.56
2023-03-06T23:28:15.801Z,56.24
2023-03-06T23:31:28.737Z,56.54
2023-03-06T23:34:34.746Z,56.19
2023-03-06T23:37:42.830Z,56.42
2023-03-06T23:40:49.755Z,56.74
2023-03-06T23:43:56.642Z,56.81
2023-03-06T23:47:05.651Z,56.76
2023-03-06T23:50:14.203Z,56.46
2023-03-06T23:53:20.645Z,56.54
2023-03-06T23:56:27.920Z,56.53
2023-03-06T23:59:33.764Z,56.44
